Time;durP1;ratioP1;P1;durP2;ratioP2;P2;SDS_P1;SDS_P2;PMS_P1;PMS_P2;Temp;Humidity;BMP_temperature;BMP_pressure;BME280_temperature;BME280_humidity;BME280_pressure;Samples;Min_cycle;Max_cycle;Signal;HPM_P1;HPM_P2
2022/06/30 00:01:40;;;;;;;7.35;5.17;;;;;;;19.36;86.51;99540.88;1838479;78;21036;-80
2022/06/30 00:04:07;;;;;;;5.53;4.72;;;;;;;19.34;86.45;99556.98;1846707;77;21095;-80
2022/06/30 00:06:34;;;;;;;5.97;4.55;;;;;;;19.34;86.38;99554.80;1846581;77;20994;-81
2022/06/30 00:09:01;;;;;;;8.08;5.28;;;;;;;19.33;86.24;99544.59;1846760;77;20920;-80
2022/06/30 00:11:28;;;;;;;6.25;5.20;;;;;;;19.34;86.31;99548.98;1824013;77;21737;-80
2022/06/30 00:13:54;;;;;;;8.18;4.95;;;;;;;19.33;86.12;99542.42;1805518;78;21573;-80
2022/06/30 00:16:21;;;;;;;10.20;5.37;;;;;;;19.37;86.01;99550.59;1805511;79;21020;-80
2022/06/30 00:18:47;;;;;;;9.90;4.80;;;;;;;19.35;85.83;99555.16;1805632;78;21036;-80
2022/06/30 00:21:14;;;;;;;5.42;5.00;;;;;;;19.33;85.64;99552.59;1805486;79;20988;-80
2022/06/30 00:23:41;;;;;;;7.70;5.17;;;;;;;19.30;85.59;99558.17;1805180;79;21138;-80
2022/06/30 00:26:07;;;;;;;6.40;4.87;;;;;;;19.26;85.60;99556.17;1805370;79;21094;-79
2022/06/30 00:28:35;;;;;;;8.55;4.95;;;;;;;19.22;85.69;99548.03;1805260;79;21037;-80
2022/06/30 00:31:01;;;;;;;6.65;5.00;;;;;;;19.20;85.71;99555.75;1805759;78;21076;-80
2022/06/30 00:33:28;;;;;;;6.42;4.80;;;;;;;19.17;85.68;99559.50;1805237;79;20973;-79
2022/06/30 00:35:54;;;;;;;6.60;4.37;;;;;;;19.17;85.61;99563.99;1805317;78;22243;-80
2022/06/30 00:38:21;;;;;;;8.68;5.37;;;;;;;19.17;85.43;99557.33;1805177;79;21067;-80
2022/06/30 00:40:48;;;;;;;8.10;5.75;;;;;;;19.15;85.31;99565.43;1805130;79;21020;-80
2022/06/30 00:43:14;;;;;;;9.63;5.33;;;;;;;19.13;85.88;99569.99;1805711;78;21099;-80
2022/06/30 00:45:45;;;;;;;6.75;5.17;;;;;;;19.12;86.07;99580.30;1805301;79;21039;-80
2022/06/30 00:48:12;;;;;;;8.63;5.83;;;;;;;19.13;86.00;99579.33;1805572;79;21073;-80
2022/06/30 00:50:39;;;;;;;6.12;5.53;;;;;;;19.15;86.26;99589.89;1805199;79;21582;-79
2022/06/30 00:53:07;;;;;;;8.93;5.70;;;;;;;19.15;86.53;99587.22;1813896;79;20961;-80
2022/06/30 00:55:34;;;;;;;7.90;5.72;;;;;;;19.16;86.95;99585.79;1791696;79;21021;-79
2022/06/30 00:58:03;;;;;;;10.43;5.87;;;;;;;19.17;87.08;99576.84;1805425;78;20969;-79
2022/06/30 01:00:33;;;;;;;6.90;5.62;;;;;;;19.18;87.34;99578.56;1805309;78;21107;-79
2022/06/30 01:03:00;;;;;;;9.10;6.03;;;;;;;19.18;87.52;99575.89;1805454;78;21012;-80
2022/06/30 01:05:27;;;;;;;6.37;5.75;;;;;;;19.17;87.66;99564.84;1805395;78;21040;-79
2022/06/30 01:07:54;;;;;;;8.28;6.45;;;;;;;19.18;87.84;99566.56;1805232;79;21400;-80
2022/06/30 01:13:08;;;;;;;8.63;5.85;;;;;;;19.14;87.87;99562.38;1805346;79;21185;-79
2022/06/30 01:15:35;;;;;;;8.23;5.95;;;;;;;19.14;87.98;99569.05;1805116;79;21032;-79
2022/06/30 01:18:01;;;;;;;6.87;5.62;;;;;;;19.12;88.08;99561.64;1805431;79;21071;-79
2022/06/30 01:20:31;;;;;;;8.70;5.80;;;;;;;19.11;88.01;99571.92;1805028;79;21015;-79
2022/06/30 01:22:58;;;;;;;7.47;5.83;;;;;;;19.12;88.06;99569.64;1805701;79;21468;-80
2022/06/30 01:25:24;;;;;;;8.33;5.47;;;;;;;19.09;88.07;99564.02;1805238;78;21960;-80
2022/06/30 01:27:52;;;;;;;7.20;5.42;;;;;;;19.09;87.73;99560.02;1805466;78;21036;-80
2022/06/30 01:30:18;;;;;;;6.47;5.28;;;;;;;19.12;87.68;99564.30;1805484;79;21105;-79
2022/06/30 01:32:45;;;;;;;9.08;6.50;;;;;;;19.11;87.50;99563.46;1813445;79;20969;-80
2022/06/30 01:35:11;;;;;;;7.03;6.40;;;;;;;19.11;87.32;99558.58;1814212;78;20994;-80
2022/06/30 01:37:58;;;;;;;10.88;7.00;;;;;;;19.11;87.39;99569.25;1805061;79;21121;-79
2022/06/30 01:40:27;;;;;;;7.10;6.47;;;;;;;19.12;87.46;99563.81;1805470;78;21937;-79
2022/06/30 01:42:54;;;;;;;8.73;6.83;;;;;;;19.11;87.55;99558.58;1805241;78;21063;-79
2022/06/30 01:45:21;;;;;;;10.13;7.28;;;;;;;19.09;87.54;99559.17;1805653;79;21118;-80
2022/06/30 01:47:48;;;;;;;7.90;7.10;;;;;;;19.09;87.73;99557.84;1805349;79;21095;-79
2022/06/30 01:50:18;;;;;;;8.38;6.92;;;;;;;19.08;87.76;99565.45;1805455;79;21742;-80
2022/06/30 01:52:44;;;;;;;9.85;7.33;;;;;;;19.07;87.79;99559.28;1814206;79;22185;-80
2022/06/30 01:55:11;;;;;;;9.00;8.10;;;;;;;19.07;88.03;99561.95;1814304;78;21534;-80
2022/06/30 01:57:38;;;;;;;8.45;7.65;;;;;;;19.08;88.09;99568.13;1786673;80;21066;-80
2022/06/30 02:00:09;;;;;;;8.38;7.40;;;;;;;19.06;88.15;99562.93;1786372;80;21008;-80
2022/06/30 02:02:36;;;;;;;8.38;7.55;;;;;;;19.04;88.10;99556.82;1791779;78;21179;-79
2022/06/30 02:05:04;;;;;;;8.18;7.37;;;;;;;19.02;88.07;99553.91;1814038;78;20966;-79
2022/06/30 02:07:35;;;;;;;8.58;7.65;;;;;;;18.98;88.03;99561.27;1813957;78;20942;-79
2022/06/30 02:10:00;;;;;;;8.10;7.30;;;;;;;18.95;88.01;99560.14;1815273;77;21067;-80
2022/06/30 02:15:22;;;;;;;10.03;7.37;;;;;;;18.89;88.12;99557.39;1813976;79;21133;-79
2022/06/30 02:17:53;;;;;;;9.20;8.00;;;;;;;18.85;88.19;99551.07;1747260;82;21005;-79
2022/06/30 02:20:23;;;;;;;14.83;7.78;;;;;;;18.82;88.36;99556.57;1778716;80;21165;-79
2022/06/30 02:22:56;;;;;;;11.43;7.33;;;;;;;18.79;88.51;99561.62;1778408;80;21050;-79
2022/06/30 02:25:26;;;;;;;11.80;7.58;;;;;;;18.77;88.58;99563.54;1778611;80;21149;-79
2022/06/30 02:27:53;;;;;;;9.83;7.33;;;;;;;18.79;88.59;99557.62;1778210;80;21129;-79
2022/06/30 02:30:20;;;;;;;9.68;6.72;;;;;;;18.80;88.55;99563.83;1778533;80;21573;-79
2022/06/30 02:32:48;;;;;;;7.97;7.17;;;;;;;18.81;88.48;99566.39;1778196;80;21073;-79
2022/06/30 02:35:15;;;;;;;8.78;6.55;;;;;;;18.83;88.39;99563.62;1778301;80;21046;-79
2022/06/30 02:37:41;;;;;;;7.67;6.33;;;;;;;18.83;88.39;99574.28;1778576;80;21102;-80
2022/06/30 02:40:08;;;;;;;10.80;6.70;;;;;;;18.82;88.38;99569.41;1778213;80;21141;-80
2022/06/30 02:42:35;;;;;;;6.97;6.37;;;;;;;18.82;88.32;99572.56;1777985;80;21004;-80
2022/06/30 02:45:02;;;;;;;7.03;6.40;;;;;;;18.83;88.30;99564.95;1778302;80;21087;-80
2022/06/30 02:47:32;;;;;;;7.15;6.45;;;;;;;18.84;88.37;99567.52;1778132;80;20999;-79
2022/06/30 02:50:03;;;;;;;8.43;6.67;;;;;;;18.85;88.37;99571.91;1778449;80;21090;-79
2022/06/30 02:52:33;;;;;;;8.15;7.03;;;;;;;18.86;88.36;99562.96;1778531;80;21177;-80
2022/06/30 02:55:00;;;;;;;7.15;5.83;;;;;;;18.87;88.33;99567.31;1775633;80;21105;-80
2022/06/30 02:57:26;;;;;;;7.10;6.30;;;;;;;18.90;88.31;99567.11;1805284;79;21043;-79
2022/06/30 02:59:53;;;;;;;10.60;6.50;;;;;;;18.91;88.29;99567.50;1805099;79;21011;-80
2022/06/30 03:02:19;;;;;;;8.13;6.30;;;;;;;18.91;88.26;99572.83;1805378;79;21074;-80
2022/06/30 03:04:45;;;;;;;8.80;5.80;;;;;;;18.93;88.28;99574.91;1739052;81;21483;-80
2022/06/30 03:07:12;;;;;;;6.33;5.70;;;;;;;18.97;88.27;99582.70;1805402;79;21043;-79
2022/06/30 03:09:38;;;;;;;6.45;5.80;;;;;;;19.00;88.13;99577.16;1805454;79;21967;-80
2022/06/30 03:12:06;;;;;;;6.45;5.65;;;;;;;19.04;87.95;99573.31;1813450;79;20999;-80
2022/06/30 03:14:33;;;;;;;7.17;6.47;;;;;;;19.06;87.83;99574.05;1813422;79;21196;-79
2022/06/30 03:16:59;;;;;;;6.05;5.45;;;;;;;19.08;87.71;99574.80;1805470;79;21081;-79
2022/06/30 03:19:26;;;;;;;5.87;5.22;;;;;;;19.11;87.66;99585.25;1813256;79;20986;-80
2022/06/30 03:21:55;;;;;;;9.03;5.10;;;;;;;19.14;87.49;99585.05;1813149;79;22250;-80
2022/06/30 03:24:22;;;;;;;6.55;5.20;;;;;;;19.18;87.24;99583.89;1813155;79;21058;-79
2022/06/30 03:26:49;;;;;;;5.40;4.78;;;;;;;19.23;87.05;99587.09;1804785;79;20991;-80
2022/06/30 03:29:15;;;;;;;7.95;4.95;;;;;;;19.27;86.84;99588.58;1805765;79;21075;-79
2022/06/30 03:31:42;;;;;;;6.00;4.97;;;;;;;19.34;86.58;99588.16;1738730;81;21053;-80
2022/06/30 03:34:09;;;;;;;6.83;4.83;;;;;;;19.39;86.43;99588.69;1769471;80;21600;-80
2022/06/30 03:36:37;;;;;;;5.42;4.92;;;;;;;19.42;86.16;99589.32;1805443;79;21478;-79
2022/06/30 03:39:04;;;;;;;8.28;5.08;;;;;;;19.48;85.88;99592.03;1805670;79;21071;-79
2022/06/30 03:41:30;;;;;;;5.95;5.00;;;;;;;19.52;85.69;99594.87;1813713;79;21121;-80
2022/06/30 03:43:58;;;;;;;6.17;5.05;;;;;;;19.58;85.48;99601.09;1812600;79;21039;-80
2022/06/30 03:46:24;;;;;;;5.05;4.33;;;;;;;19.61;85.34;99599.54;1738893;82;21021;-80
2022/06/30 03:48:51;;;;;;;4.97;4.58;;;;;;;19.65;85.33;99603.72;1805215;79;21031;-79
2022/06/30 03:51:18;;;;;;;6.00;4.67;;;;;;;19.72;85.29;99600.59;1805289;79;21592;-80
2022/06/30 03:53:44;;;;;;;4.72;4.33;;;;;;;19.74;85.04;99598.20;1813184;79;21095;-80
2022/06/30 03:56:11;;;;;;;6.45;4.78;;;;;;;19.78;84.78;99600.20;1812793;79;20990;-80
2022/06/30 03:58:37;;;;;;;5.03;4.28;;;;;;;19.82;84.62;99600.33;1813028;79;21038;-81
2022/06/30 04:01:04;;;;;;;7.12;4.72;;;;;;;19.87;84.48;99604.89;1813295;79;21042;-79
2022/06/30 04:03:31;;;;;;;6.30;4.22;;;;;;;19.92;84.43;99593.39;1815644;78;21011;-80
2022/06/30 04:05:57;;;;;;;5.10;4.55;;;;;;;19.99;84.21;99597.81;1808408;79;21111;-79
2022/06/30 04:08:24;;;;;;;5.20;4.80;;;;;;;20.04;84.15;99596.50;1808559;79;21055;-80
2022/06/30 04:10:51;;;;;;;7.15;4.60;;;;;;;20.10;84.21;99601.86;1808632;79;21008;-80
2022/06/30 04:13:18;;;;;;;8.33;4.55;;;;;;;20.15;83.97;99598.38;1808457;78;21110;-81
2022/06/30 04:15:44;;;;;;;4.58;3.98;;;;;;;20.22;83.86;99594.31;1805275;79;21471;-79
2022/06/30 04:18:12;;;;;;;5.37;4.87;;;;;;;20.28;83.79;99598.34;1805108;79;21121;-80
2022/06/30 04:20:38;;;;;;;5.42;4.30;;;;;;;20.31;83.73;99595.45;1805482;79;21602;-79
2022/06/30 04:23:05;;;;;;;6.35;4.60;;;;;;;20.34;83.53;99600.56;1805295;78;21483;-80
2022/06/30 04:25:32;;;;;;;4.80;4.40;;;;;;;20.39;83.49;99594.39;1805480;78;21479;-80
2022/06/30 04:28:00;;;;;;;4.72;4.30;;;;;;;20.44;83.12;99597.20;1805456;79;21070;-80
2022/06/30 04:33:12;;;;;;;;;;;;;;;20.50;82.37;99602.94;1808276;79;21463;-81
2022/06/30 04:35:38;;;;;;;5.67;4.22;;;;;;;20.55;82.17;99598.09;1805290;79;20278;-80
2022/06/30 04:38:06;;;;;;;5.33;4.05;;;;;;;20.59;81.81;99596.05;1805177;78;21079;-79
2022/06/30 04:43:19;;;;;;;5.03;4.53;;;;;;;20.68;81.87;99594.06;1805800;79;21096;-80
2022/06/30 04:45:45;;;;;;;4.28;3.75;;;;;;;20.76;81.98;99596.14;1805320;79;21522;-80
2022/06/30 04:48:11;;;;;;;4.50;3.83;;;;;;;20.83;81.63;99597.86;1805462;79;21432;-80
2022/06/30 04:50:39;;;;;;;4.37;3.98;;;;;;;20.88;81.05;99594.35;1805410;79;21574;-79
2022/06/30 04:53:06;;;;;;;5.95;3.90;;;;;;;20.94;80.78;99596.57;1809263;78;21612;-79
2022/06/30 04:55:32;;;;;;;4.40;4.10;;;;;;;21.00;80.74;99596.11;1813662;79;21518;-80
2022/06/30 04:57:59;;;;;;;4.62;3.75;;;;;;;21.06;80.21;99600.97;1814109;79;21119;-80
2022/06/30 05:00:25;;;;;;;3.90;3.52;;;;;;;21.14;79.53;99599.89;1805457;79;21012;-80
2022/06/30 05:02:53;;;;;;;3.80;3.42;;;;;;;21.21;79.32;99600.77;1805092;79;21407;-80
2022/06/30 05:05:20;;;;;;;3.55;3.25;;;;;;;21.26;79.09;99607.45;1803887;78;21024;-81
2022/06/30 05:07:46;;;;;;;5.42;3.40;;;;;;;21.31;78.12;99613.80;1805274;79;21140;-79
2022/06/30 05:10:13;;;;;;;3.50;3.00;;;;;;;21.36;78.02;99608.09;1805065;79;21052;-80
2022/06/30 05:12:40;;;;;;;3.05;2.77;;;;;;;21.42;77.85;99612.48;1805357;78;21110;-79
2022/06/30 05:15:07;;;;;;;3.40;3.10;;;;;;;21.48;77.37;99607.99;1805197;79;21566;-80
2022/06/30 05:17:35;;;;;;;6.67;3.10;;;;;;;21.52;76.34;99614.83;1805753;78;21127;-80
2022/06/30 05:20:02;;;;;;;4.55;3.20;;;;;;;21.57;75.88;99619.83;1804994;79;21158;-80
2022/06/30 05:22:29;;;;;;;6.12;3.05;;;;;;;21.62;75.28;99614.95;1805360;79;21416;-79
2022/06/30 05:27:42;;;;;;;2.60;2.50;;;;;;;21.75;74.85;99619.33;1814048;79;21094;-79
2022/06/30 05:30:10;;;;;;;4.33;2.85;;;;;;;21.81;74.75;99621.03;1768539;79;21062;-79
2022/06/30 05:32:37;;;;;;;3.42;3.17;;;;;;;21.86;74.74;99624.69;1814488;78;21968;-80
2022/06/30 05:35:05;;;;;;;5.90;3.20;;;;;;;21.91;74.00;99629.69;1814083;79;20932;-80
2022/06/30 05:37:33;;;;;;;4.95;2.90;;;;;;;21.96;73.63;99616.77;1813704;78;21050;-80
2022/06/30 05:39:59;;;;;;;4.58;2.70;;;;;;;21.99;73.66;99620.05;1814252;78;21039;-80
2022/06/30 05:42:27;;;;;;;3.60;2.60;;;;;;;22.07;73.57;99619.41;1805548;79;20984;-80
2022/06/30 05:44:54;;;;;;;5.85;2.70;;;;;;;22.15;72.98;99621.48;1805131;79;21487;-81
2022/06/30 05:47:20;;;;;;;3.20;2.70;;;;;;;22.21;72.56;99610.28;1805169;78;21043;-80
2022/06/30 05:49:47;;;;;;;3.90;3.10;;;;;;;22.28;72.24;99609.29;1805045;78;21523;-79
2022/06/30 05:52:14;;;;;;;3.20;3.00;;;;;;;22.34;71.71;99608.33;1805376;79;21137;-80
2022/06/30 05:54:40;;;;;;;4.53;3.08;;;;;;;22.39;71.62;99605.25;1805589;79;20968;-80
2022/06/30 05:57:07;;;;;;;7.10;3.90;;;;;;;22.45;71.87;99606.09;1805115;78;21471;-80
2022/06/30 05:59:34;;;;;;;6.25;3.37;;;;;;;22.53;72.56;99605.47;1805101;79;21023;-79
2022/06/30 06:02:01;;;;;;;3.45;3.15;;;;;;;22.57;72.04;99603.72;1805174;79;21553;-81
2022/06/30 06:04:29;;;;;;;3.90;2.98;;;;;;;22.63;71.77;99608.58;1805450;78;21557;-80
2022/06/30 06:06:55;;;;;;;7.58;3.52;;;;;;;22.68;72.06;99608.67;1805745;79;20969;-80
2022/06/30 06:09:22;;;;;;;4.45;3.40;;;;;;;22.76;72.74;99612.44;1805503;79;21046;-80
2022/06/30 06:11:48;;;;;;;7.50;3.58;;;;;;;22.85;72.73;99617.52;1806555;78;21059;-80
2022/06/30 06:14:15;;;;;;;7.85;3.22;;;;;;;22.92;71.27;99615.16;1808103;78;21048;-79
2022/06/30 06:16:41;;;;;;;6.67;3.55;;;;;;;22.98;71.38;99613.28;1813153;79;20956;-80
2022/06/30 06:19:08;;;;;;;4.45;3.22;;;;;;;23.06;71.12;99625.59;1813430;79;21592;-80
2022/06/30 06:21:36;;;;;;;4.80;3.00;;;;;;;23.13;71.00;99624.58;1813285;79;21456;-80
2022/06/30 06:24:03;;;;;;;6.75;3.90;;;;;;;23.18;69.84;99617.86;1813474;79;21191;-81
2022/06/30 06:26:29;;;;;;;4.50;3.83;;;;;;;23.24;69.43;99617.81;1805387;79;20995;-81
2022/06/30 06:29:14;;;;;;;4.15;3.85;;;;;;;23.29;68.95;99611.55;1813366;79;20968;-79
2022/06/30 06:31:39;;;;;;;4.87;3.30;;;;;;;23.34;68.99;99605.79;1803586;79;20992;-80
2022/06/30 06:34:06;;;;;;;3.65;3.02;;;;;;;23.40;68.49;99609.77;1805819;79;21130;-81
2022/06/30 06:36:33;;;;;;;3.85;3.17;;;;;;;23.45;68.35;99610.22;1805330;79;21035;-81
2022/06/30 06:39:00;;;;;;;7.67;3.58;;;;;;;23.51;67.37;99608.34;1805524;79;21040;-80
2022/06/30 06:41:26;;;;;;;4.08;3.67;;;;;;;23.56;67.70;99616.34;1805584;79;21066;-80
2022/06/30 06:43:53;;;;;;;3.58;3.17;;;;;;;23.63;67.71;99616.66;1805243;79;21047;-80
2022/06/30 06:46:26;;;;;;;4.22;3.52;;;;;;;23.71;67.78;99610.13;1805739;79;21111;-80
2022/06/30 06:48:48;;;;;;;4.28;3.45;;;;;;;23.82;68.54;99615.08;1737877;82;21124;-79
2022/06/30 06:51:14;;;;;;;4.05;3.67;;;;;;;23.90;68.32;99608.53;1805166;79;21067;-80
2022/06/30 06:53:41;;;;;;;4.00;3.22;;;;;;;23.99;68.38;99610.41;1813579;79;21067;-80
2022/06/30 06:56:08;;;;;;;3.50;3.20;;;;;;;24.06;66.88;99607.53;1733071;81;21577;-80
2022/06/30 06:58:34;;;;;;;3.55;3.25;;;;;;;24.13;66.45;99604.30;1731197;82;21491;-80
2022/06/30 07:01:01;;;;;;;3.72;3.10;;;;;;;24.19;66.42;99607.76;1730785;82;21523;-81
2022/06/30 07:03:29;;;;;;;4.10;3.17;;;;;;;24.24;65.58;99605.50;1730967;82;21016;-80
2022/06/30 07:05:56;;;;;;;3.55;3.35;;;;;;;24.30;65.95;99596.89;1730871;81;21076;-80
2022/06/30 07:08:22;;;;;;;6.30;3.30;;;;;;;24.37;64.81;99600.71;1731153;82;21087;-79
2022/06/30 07:10:49;;;;;;;3.95;3.60;;;;;;;24.40;64.23;99599.59;1730640;82;21521;-80
2022/06/30 07:13:16;;;;;;;4.08;3.42;;;;;;;24.43;64.50;99605.54;1730887;81;21159;-80
2022/06/30 07:15:43;;;;;;;3.67;3.30;;;;;;;24.46;64.74;99597.20;1730696;81;20997;-80
2022/06/30 07:18:09;;;;;;;4.85;3.67;;;;;;;24.55;64.84;99594.69;1730587;82;21005;-80
2022/06/30 07:20:36;;;;;;;4.60;3.30;;;;;;;24.61;64.74;99594.98;1730622;82;21138;-81
2022/06/30 07:23:02;;;;;;;5.85;3.25;;;;;;;24.68;64.19;99592.57;1730704;81;21124;-80
2022/06/30 07:25:29;;;;;;;3.20;3.00;;;;;;;24.75;64.44;99591.00;1730633;82;20997;-81
2022/06/30 07:27:55;;;;;;;2.72;2.52;;;;;;;24.83;64.30;99586.23;1731184;82;21063;-81
2022/06/30 07:30:21;;;;;;;4.28;2.47;;;;;;;24.92;63.81;99595.31;1730713;81;21043;-80
2022/06/30 07:32:48;;;;;;;2.90;2.70;;;;;;;24.99;62.66;99600.47;1731091;81;21496;-79
2022/06/30 07:35:14;;;;;;;2.90;2.70;;;;;;;25.08;61.85;99604.13;1730835;82;21319;-80
2022/06/30 07:37:41;;;;;;;3.25;2.70;;;;;;;25.15;62.15;99602.07;1730811;82;21071;-80
2022/06/30 07:40:09;;;;;;;3.60;2.65;;;;;;;25.22;62.01;99604.53;1730707;81;21214;-81
2022/06/30 07:42:36;;;;;;;3.77;2.58;;;;;;;25.30;61.34;99604.32;1730772;81;21143;-80
2022/06/30 07:45:06;;;;;;;3.87;2.65;;;;;;;25.36;61.05;99607.79;1730597;81;21028;-80
2022/06/30 07:47:33;;;;;;;6.30;2.92;;;;;;;25.38;60.38;99620.61;1730849;82;21127;-79
2022/06/30 07:49:59;;;;;;;2.87;2.50;;;;;;;25.41;61.01;99620.32;1730740;81;21493;-80
2022/06/30 07:52:26;;;;;;;3.08;2.87;;;;;;;25.44;59.56;99620.54;1730936;82;21735;-80
2022/06/30 07:54:53;;;;;;;3.75;2.50;;;;;;;25.44;60.13;99620.03;1730664;81;21076;-80
2022/06/30 07:57:20;;;;;;;3.60;2.45;;;;;;;25.48;59.65;99617.38;1733292;82;21103;-80
2022/06/30 07:59:46;;;;;;;4.97;2.65;;;;;;;25.56;59.62;99612.11;1805796;78;21210;-81
2022/06/30 08:02:13;;;;;;;3.42;3.20;;;;;;;25.65;59.61;99610.38;1805283;79;21082;-80
2022/06/30 08:04:39;;;;;;;2.92;2.72;;;;;;;25.73;59.80;99610.48;1805384;78;21044;-79
2022/06/30 08:07:06;;;;;;;3.15;2.85;;;;;;;25.78;59.43;99609.54;1805472;79;21037;-81
2022/06/30 08:09:33;;;;;;;3.20;2.92;;;;;;;25.85;59.18;99611.14;1805342;79;21045;-80
2022/06/30 08:12:00;;;;;;;5.75;3.00;;;;;;;25.91;58.65;99601.62;1805200;79;21205;-81
2022/06/30 08:14:26;;;;;;;3.50;2.67;;;;;;;25.95;57.78;99599.84;1807255;78;21369;-80
2022/06/30 08:16:53;;;;;;;3.33;2.67;;;;;;;26.00;57.09;99601.25;1805148;79;20996;-80
2022/06/30 08:19:20;;;;;;;4.72;2.87;;;;;;;26.05;57.16;99597.60;1805392;78;21055;-82
2022/06/30 08:21:47;;;;;;;3.20;3.00;;;;;;;26.08;56.42;99597.31;1805510;79;20995;-80
2022/06/30 08:24:14;;;;;;;3.15;2.80;;;;;;;26.11;56.46;99596.50;1805209;78;21519;-80
2022/06/30 08:26:41;;;;;;;3.10;2.80;;;;;;;26.17;58.10;99600.42;1805561;79;21039;-81
2022/06/30 08:29:08;;;;;;;3.45;3.17;;;;;;;26.25;58.13;99597.83;1805098;79;21416;-80
2022/06/30 08:31:35;;;;;;;5.10;3.00;;;;;;;26.31;57.82;99598.58;1805250;79;20993;-80
2022/06/30 08:34:03;;;;;;;4.75;3.08;;;;;;;26.39;57.11;99599.14;1805376;79;20972;-81
2022/06/30 08:36:30;;;;;;;3.00;2.60;;;;;;;26.47;56.61;99599.73;1805505;79;21101;-80
2022/06/30 08:38:56;;;;;;;3.15;2.80;;;;;;;26.53;56.75;99596.44;1805292;78;21055;-82
2022/06/30 08:44:08;;;;;;;;;;;;;;;26.68;55.13;99596.77;1808323;79;21056;-79
2022/06/30 08:46:37;;;;;;;2.75;2.27;;;;;;;26.78;55.58;99588.56;1805339;79;20427;-80
2022/06/30 08:49:04;;;;;;;5.00;3.20;;;;;;;26.84;56.76;99591.48;1805626;78;21834;-79
2022/06/30 08:51:30;;;;;;;3.12;2.92;;;;;;;26.94;56.69;99594.11;1805212;79;20957;-79
2022/06/30 08:54:02;;;;;;;3.92;2.92;;;;;;;27.02;55.35;99594.17;1805431;78;21182;-80
2022/06/30 08:56:34;;;;;;;5.65;2.62;;;;;;;27.11;56.57;99598.28;1806668;78;21558;-80
2022/06/30 08:59:04;;;;;;;3.15;2.92;;;;;;;27.20;55.88;99594.14;1813986;79;21091;-79
2022/06/30 09:01:31;;;;;;;2.77;2.58;;;;;;;27.29;55.45;99595.06;1813791;79;21045;-79
2022/06/30 09:03:58;;;;;;;3.65;2.90;;;;;;;27.37;54.94;99595.12;1814055;78;21107;-80
2022/06/30 09:06:24;;;;;;;4.00;3.00;;;;;;;27.45;55.06;99594.81;1814037;79;21514;-79
2022/06/30 09:08:51;;;;;;;3.10;2.75;;;;;;;27.49;53.54;99597.52;1814283;78;21518;-78
2022/06/30 09:11:18;;;;;;;2.80;2.60;;;;;;;27.53;54.11;99598.92;1813811;79;21617;-80
2022/06/30 09:13:51;;;;;;;4.22;2.65;;;;;;;27.57;53.21;99597.58;1813745;78;21460;-79
2022/06/30 09:16:20;;;;;;;2.50;2.40;;;;;;;27.64;54.15;99601.35;1813817;79;21110;-80
2022/06/30 09:18:46;;;;;;;2.95;2.60;;;;;;;27.69;52.86;99601.71;1814156;79;21023;-79
2022/06/30 09:21:16;;;;;;;3.58;2.67;;;;;;;27.77;52.77;99603.11;1813657;78;21038;-80
2022/06/30 09:23:45;;;;;;;2.40;2.30;;;;;;;27.86;53.02;99603.98;1813750;79;21467;-78
2022/06/30 09:26:22;;;;;;;2.62;2.42;;;;;;;27.96;52.47;99606.08;1813859;78;21169;-79
2022/06/30 09:28:51;;;;;;;2.70;2.50;;;;;;;28.07;51.56;99609.48;1813823;78;20980;-79
2022/06/30 09:31:34;;;;;;;2.75;2.40;;;;;;;28.13;50.12;99604.27;1814193;79;21111;-79
2022/06/30 09:34:21;;;;;;;2.30;2.20;;;;;;;28.20;50.81;99599.05;1813608;79;21047;-79
2022/06/30 09:36:48;;;;;;;2.70;2.50;;;;;;;28.24;50.73;99598.21;1814134;79;21118;-80
2022/06/30 09:39:16;;;;;;;2.70;2.50;;;;;;;28.31;51.07;99592.47;1813634;79;21222;-79
2022/06/30 09:41:44;;;;;;;3.52;2.20;;;;;;;28.38;49.39;99597.58;1814071;78;21126;-80
2022/06/30 09:44:22;;;;;;;2.33;2.12;;;;;;;28.39;48.95;99599.77;1813714;79;20987;-79
2022/06/30 09:47:12;;;;;;;2.55;2.35;;;;;;;28.42;49.04;99591.33;1813692;78;21055;-80
2022/06/30 09:49:44;;;;;;;2.52;2.27;;;;;;;28.49;48.57;99591.83;1813852;78;21062;-78
2022/06/30 09:52:25;;;;;;;3.47;2.37;;;;;;;28.51;47.48;99593.02;1813727;78;21099;-79
2022/06/30 09:55:01;;;;;;;3.50;2.17;;;;;;;28.56;48.75;99589.84;1813787;79;20945;-80
2022/06/30 09:57:30;;;;;;;2.25;2.15;;;;;;;28.63;48.57;99590.86;1813889;78;21090;-78
2022/06/30 10:00:07;;;;;;;2.80;2.40;;;;;;;28.67;48.40;99586.81;1812776;78;21035;-79
2022/06/30 10:02:39;;;;;;;2.25;2.15;;;;;;;28.73;48.55;99580.70;1812782;79;21490;-80
2022/06/30 10:05:08;;;;;;;4.50;2.30;;;;;;;28.82;48.76;99585.64;1813626;78;21140;-80
2022/06/30 10:07:37;;;;;;;2.50;2.30;;;;;;;28.89;47.59;99580.70;1814049;79;20984;-80
2022/06/30 10:10:11;;;;;;;2.50;2.40;;;;;;;28.97;48.45;99574.97;1814170;78;21099;-80
2022/06/30 10:12:38;;;;;;;3.75;2.50;;;;;;;29.04;47.95;99575.97;1813855;78;20984;-79
2022/06/30 10:15:07;;;;;;;2.90;2.12;;;;;;;29.08;47.65;99575.47;1808617;79;21107;-80
2022/06/30 10:17:37;;;;;;;5.05;3.15;;;;;;;29.13;46.83;99576.28;1710921;83;21784;-79
2022/06/30 10:20:06;;;;;;;5.10;2.50;;;;;;;29.19;47.86;99584.28;1731411;82;21122;-80
2022/06/30 10:22:32;;;;;;;5.75;2.60;;;;;;;29.30;48.38;99585.77;1731113;82;21476;-78
2022/06/30 10:24:59;;;;;;;2.50;2.40;;;;;;;29.42;48.75;99583.02;1731101;82;21421;-79
2022/06/30 10:27:27;;;;;;;5.47;2.58;;;;;;;29.53;49.18;99584.02;1731334;82;21020;-80
2022/06/30 10:30:14;;;;;;;3.58;3.17;;;;;;;29.59;48.52;99579.26;1731162;82;21181;-79
2022/06/30 10:33:14;;;;;;;6.55;3.00;;;;;;;29.63;47.98;99576.52;1731244;82;21000;-79
2022/06/30 10:35:51;;;;;;;6.53;3.20;;;;;;;29.71;47.74;99582.95;1731441;82;21107;-80
2022/06/30 10:38:54;;;;;;;2.98;2.77;;;;;;;29.80;47.87;99583.27;1731248;82;21146;-79
2022/06/30 10:41:23;;;;;;;3.02;2.83;;;;;;;29.89;46.00;99582.23;1731010;82;21075;-79
2022/06/30 10:44:12;;;;;;;4.75;2.62;;;;;;;29.94;45.80;99577.12;1708911;82;21117;-79
2022/06/30 10:46:56;;;;;;;2.75;2.62;;;;;;;30.02;46.73;99577.56;1731063;82;21000;-78
2022/06/30 10:49:24;;;;;;;2.70;2.50;;;;;;;30.13;45.84;99577.17;1731482;82;21068;-80
2022/06/30 10:52:12;;;;;;;4.47;2.65;;;;;;;30.25;47.15;99576.78;1730949;82;21017;-80
2022/06/30 10:54:41;;;;;;;3.92;3.62;;;;;;;30.32;46.50;99561.45;1731071;82;21094;-79
2022/06/30 10:57:08;;;;;;;5.53;3.20;;;;;;;30.31;45.43;99567.41;1712359;81;21078;-79
2022/06/30 10:59:37;;;;;;;4.15;2.75;;;;;;;30.18;45.37;99566.63;1756699;81;21040;-79
2022/06/30 11:02:18;;;;;;;6.33;4.70;;;;;;;30.10;47.15;99561.77;1756993;81;21066;-79
2022/06/30 11:04:50;;;;;;;3.10;2.80;;;;;;;30.11;47.02;99568.87;1815062;79;21077;-79
2022/06/30 11:07:24;;;;;;;4.78;3.65;;;;;;;30.18;46.98;99572.58;1814411;79;21482;-79
2022/06/30 11:09:57;;;;;;;4.42;4.03;;;;;;;30.23;47.89;99567.45;1814677;79;21118;-78
2022/06/30 11:12:37;;;;;;;3.60;3.20;;;;;;;30.19;46.40;99565.62;1742599;81;21029;-80
2022/06/30 11:15:04;;;;;;;3.58;3.25;;;;;;;30.17;47.43;99562.73;1757052;81;21079;-78
2022/06/30 11:17:32;;;;;;;4.08;2.98;;;;;;;30.20;47.38;99565.09;1814394;79;21569;-79
2022/06/30 11:20:03;;;;;;;3.40;3.10;;;;;;;30.21;47.42;99569.48;1814384;79;20977;-78
2022/06/30 11:22:30;;;;;;;3.33;3.02;;;;;;;30.28;48.09;99572.33;1814671;79;21996;-79
2022/06/30 11:25:08;;;;;;;3.60;3.08;;;;;;;30.35;46.66;99560.58;1814398;79;21564;-79
2022/06/30 11:27:38;;;;;;;3.47;2.87;;;;;;;30.41;45.96;99561.75;1814301;79;21030;-79
2022/06/30 11:30:10;;;;;;;3.27;2.77;;;;;;;30.52;46.79;99560.50;1814712;79;21046;-79
2022/06/30 11:32:37;;;;;;;3.37;2.90;;;;;;;30.58;46.51;99557.06;1814464;79;21062;-79
2022/06/30 11:35:05;;;;;;;4.05;2.65;;;;;;;30.65;46.53;99554.44;1742654;81;21513;-79
2022/06/30 11:37:33;;;;;;;2.90;2.55;;;;;;;30.73;47.01;99554.38;1756832;81;21134;-79
2022/06/30 11:40:05;;;;;;;4.25;3.20;;;;;;;30.78;47.43;99556.02;1756873;81;21521;-78
2022/06/30 11:42:31;;;;;;;3.27;2.98;;;;;;;30.86;47.68;99557.83;1756916;81;21159;-79
2022/06/30 11:44:58;;;;;;;3.33;3.08;;;;;;;30.91;46.65;99551.34;1756612;81;21535;-78
2022/06/30 11:47:28;;;;;;;2.92;2.80;;;;;;;30.98;46.08;99554.19;1814809;79;21149;-79
2022/06/30 11:49:57;;;;;;;3.10;2.80;;;;;;;31.08;46.62;99547.45;1814576;79;21011;-79
2022/06/30 11:52:34;;;;;;;2.95;2.75;;;;;;;31.21;46.38;99539.19;1814676;79;21023;-79
2022/06/30 11:55:05;;;;;;;7.15;3.10;;;;;;;31.34;45.79;99535.30;1782696;79;21094;-78
2022/06/30 11:57:36;;;;;;;3.85;2.87;;;;;;;31.40;44.44;99540.49;1814968;79;21185;-80